Time;durP1;ratioP1;P1;durP2;ratioP2;P2;SDS_P1;SDS_P2;PMS_P1;PMS_P2;Temp;Humidity;BMP_temperature;BMP_pressure;BME280_temperature;BME280_humidity;BME280_pressure;Samples;Min_cycle;Max_cycle;Signal;HPM_P1;HPM_P2
2023/03/21 00:01:29;;;;;;;36.30;18.93;;;8.10;99.90;;;;;;8298759;28;20222;-83
2023/03/21 00:05:30;;;;;;;33.50;18.57;;;8.10;99.90;;;;;;8307548;28;20187;-83
2023/03/21 00:09:31;;;;;;;33.50;18.43;;;8.00;99.90;;;;;;8301689;28;20191;-82
2023/03/21 00:13:37;;;;;;;32.17;19.10;;;8.00;99.90;;;;;;8309471;28;20191;-82
2023/03/21 00:17:38;;;;;;;27.63;17.03;;;8.00;99.90;;;;;;8306560;28;20203;-82
2023/03/21 00:21:41;;;;;;;31.00;18.13;;;7.90;99.90;;;;;;8303625;28;20238;-83
2023/03/21 00:25:42;;;;;;;33.97;18.80;;;7.90;99.90;;;;;;8303426;28;20183;-83
2023/03/21 00:29:43;;;;;;;29.13;17.60;;;7.90;99.90;;;;;;8306439;28;20202;-83
2023/03/21 00:33:44;;;;;;;36.83;20.43;;;7.90;99.90;;;;;;8304604;28;20229;-83
2023/03/21 00:37:45;;;;;;;35.20;20.40;;;7.90;99.90;;;;;;8312468;28;20293;-83
2023/03/21 00:41:46;;;;;;;37.03;19.23;;;7.90;99.90;;;;;;8318206;28;20206;-82
2023/03/21 00:45:47;;;;;;;35.70;20.83;;;7.90;99.90;;;;;;8321245;28;20192;-82
2023/03/21 00:49:48;;;;;;;43.00;23.50;;;7.90;99.90;;;;;;8329039;28;20198;-83
2023/03/21 00:53:49;;;;;;;38.60;21.43;;;7.90;99.90;;;;;;8322740;28;20281;-80
2023/03/21 00:57:50;;;;;;;40.93;22.77;;;7.90;99.90;;;;;;8314834;28;20205;-80
2023/03/21 01:01:52;;;;;;;41.50;21.67;;;7.90;99.90;;;;;;8313836;28;20234;-82
2023/03/21 01:06:05;;;;;;;42.60;23.70;;;7.90;99.90;;;;;;8303969;28;20182;-82
2023/03/21 01:10:07;;;;;;;44.43;24.33;;;7.80;99.90;;;;;;8324872;28;20332;-82
2023/03/21 01:14:08;;;;;;;46.50;22.83;;;7.80;99.90;;;;;;8305849;28;20195;-83
2023/03/21 01:18:09;;;;;;;43.53;24.63;;;7.80;99.90;;;;;;8305803;28;20237;-81
2023/03/21 01:22:10;;;;;;;44.03;25.03;;;7.80;99.90;;;;;;8310042;28;20222;-82
2023/03/21 01:26:12;;;;;;;44.97;23.47;;;7.80;99.90;;;;;;8321424;28;20218;-82
2023/03/21 01:30:13;;;;;;;43.30;23.87;;;7.80;99.90;;;;;;8306453;28;20195;-82
2023/03/21 01:34:14;;;;;;;42.73;23.97;;;7.80;99.90;;;;;;8303570;28;20215;-81
2023/03/21 01:38:15;;;;;;;43.80;23.67;;;7.80;99.90;;;;;;8306861;28;20264;-81
2023/03/21 01:42:16;;;;;;;44.33;23.00;;;7.80;99.90;;;;;;8310404;28;20310;-81
2023/03/21 01:46:24;;;;;;;34.43;20.37;;;7.70;99.90;;;;;;8311447;28;20205;-83
2023/03/21 01:50:26;;;;;;;37.63;20.43;;;7.70;99.90;;;;;;8305100;28;20195;-81
2023/03/21 01:54:32;;;;;;;38.87;22.33;;;7.70;99.90;;;;;;8310649;28;20719;-81
2023/03/21 01:58:34;;;;;;;40.53;23.30;;;7.70;99.90;;;;;;8300112;28;20191;-82
2023/03/21 02:02:36;;;;;;;37.00;22.60;;;7.70;99.90;;;;;;8306489;28;20227;-81
2023/03/21 02:06:48;;;;;;;41.17;22.97;;;7.70;99.90;;;;;;8321941;28;20187;-81
2023/03/21 02:10:50;;;;;;;34.63;20.57;;;7.70;99.90;;;;;;8313545;28;20298;-82
2023/03/21 02:14:52;;;;;;;36.53;21.77;;;7.70;99.90;;;;;;8309343;28;20190;-82
2023/03/21 02:19:18;;;;;;;45.73;24.43;;;7.70;99.90;;;;;;8304453;28;20210;-81
2023/03/21 02:23:36;;;;;;;43.37;23.23;;;7.70;99.90;;;;;;8303840;28;20192;-82
2023/03/21 02:27:54;;;;;;;42.27;23.83;;;7.70;99.90;;;;;;8301028;28;20207;-82
2023/03/21 02:32:04;;;;;;;38.60;21.73;;;7.60;99.90;;;;;;8305367;28;20186;-82
2023/03/21 02:36:28;;;;;;;47.87;24.87;;;7.60;99.90;;;;;;8302825;28;20241;-82
2023/03/21 02:40:55;;;;;;;42.73;23.17;;;7.60;99.90;;;;;;8297829;28;20214;-82
2023/03/21 02:45:02;;;;;;;41.20;23.43;;;7.60;99.90;;;;;;8306624;28;20183;-81
2023/03/21 02:49:21;;;;;;;46.30;24.70;;;7.60;99.90;;;;;;8302479;28;20328;-81
2023/03/21 02:53:26;;;;;;;43.30;24.37;;;7.60;99.90;;;;;;8308891;28;20655;-81
2023/03/21 02:57:27;;;;;;;44.77;25.10;;;7.60;99.90;;;;;;8306572;28;20185;-82
2023/03/21 03:01:28;;;;;;;44.73;24.60;;;7.60;99.90;;;;;;8309516;28;20209;-82
2023/03/21 03:05:32;;;;;;;43.60;23.20;;;7.60;99.90;;;;;;8301509;28;20183;-82
2023/03/21 03:09:53;;;;;;;43.27;23.53;;;7.60;99.90;;;;;;8299826;28;20190;-82
2023/03/21 03:14:12;;;;;;;47.27;23.63;;;7.60;99.90;;;;;;8317584;28;20186;-82
2023/03/21 03:18:32;;;;;;;45.17;24.53;;;7.60;99.90;;;;;;8303137;28;20201;-82
2023/03/21 03:22:59;;;;;;;48.70;24.13;;;7.60;99.90;;;;;;8300033;28;20211;-82
2023/03/21 03:27:14;;;;;;;47.80;24.83;;;7.60;99.90;;;;;;8307961;28;20187;-82
2023/03/21 03:31:20;;;;;;;39.60;21.70;;;7.60;99.90;;;;;;8290954;28;20190;-83
2023/03/21 03:35:22;;;;;;;43.50;23.67;;;7.50;99.90;;;;;;8298786;28;20203;-82
2023/03/21 03:39:35;;;;;;;39.07;23.33;;;7.50;99.90;;;;;;8286664;28;20470;-82
2023/03/21 03:43:49;;;;;;;35.67;21.03;;;7.50;99.90;;;;;;8310867;28;20189;-81
2023/03/21 03:48:03;;;;;;;41.87;23.00;;;7.50;99.90;;;;;;8306181;28;20181;-82
2023/03/21 03:52:12;;;;;;;33.80;20.33;;;7.50;99.90;;;;;;8304948;28;20186;-82
2023/03/21 03:56:13;;;;;;;37.73;21.20;;;7.50;99.90;;;;;;8306732;28;20186;-84
2023/03/21 04:00:16;;;;;;;34.80;19.47;;;7.50;99.90;;;;;;8316285;28;20203;-83
2023/03/21 04:04:16;;;;;;;40.93;22.53;;;7.50;99.90;;;;;;8327074;28;20175;-84
2023/03/21 04:08:17;;;;;;;40.50;23.80;;;7.50;99.90;;;;;;8324122;28;20256;-82
2023/03/21 04:12:18;;;;;;;44.43;24.57;;;7.50;99.90;;;;;;8315692;28;20850;-82
2023/03/21 04:16:19;;;;;;;44.53;24.13;;;7.50;99.90;;;;;;8306191;28;20190;-83
2023/03/21 04:20:20;;;;;;;40.57;22.77;;;7.50;99.90;;;;;;8301505;28;20240;-82
2023/03/21 04:24:21;;;;;;;38.10;22.43;;;7.50;99.90;;;;;;8302751;28;20183;-82
2023/03/21 04:28:22;;;;;;;37.23;22.20;;;7.50;99.90;;;;;;8298024;28;20214;-82
2023/03/21 04:32:23;;;;;;;40.17;23.27;;;7.50;99.90;;;;;;8300140;28;20190;-83
2023/03/21 04:36:26;;;;;;;38.10;22.83;;;7.50;99.90;;;;;;8302017;28;20202;-82
2023/03/21 04:40:27;;;;;;;37.87;22.27;;;7.50;99.90;;;;;;8306839;28;20210;-82
2023/03/21 04:44:27;;;;;;;49.63;26.60;;;7.40;99.90;;;;;;8306258;28;20180;-83
2023/03/21 04:48:29;;;;;;;40.20;24.50;;;7.40;99.90;;;;;;8306206;28;20244;-81
2023/03/21 04:52:29;;;;;;;43.07;25.53;;;7.40;99.90;;;;;;8304519;28;20245;-81
2023/03/21 04:56:34;;;;;;;46.50;26.63;;;7.40;99.90;;;;;;8296170;28;20202;-81
2023/03/21 05:00:37;;;;;;;43.10;24.80;;;7.40;99.90;;;;;;8305440;28;20206;-81
2023/03/21 05:04:39;;;;;;;43.93;24.37;;;7.40;99.90;;;;;;8298360;28;20418;-81
2023/03/21 05:08:40;;;;;;;50.47;27.90;;;7.40;99.90;;;;;;8306120;28;20183;-81
2023/03/21 05:12:42;;;;;;;44.17;26.77;;;7.40;99.90;;;;;;8299363;28;20189;-78
2023/03/21 05:16:47;;;;;;;40.43;25.37;;;7.40;99.90;;;;;;8307648;28;20186;-79
2023/03/21 05:20:53;;;;;;;42.60;25.63;;;7.40;99.90;;;;;;8300594;28;20214;-79
2023/03/21 05:24:54;;;;;;;38.63;24.23;;;7.50;99.90;;;;;;8304480;28;20206;-78
2023/03/21 05:28:55;;;;;;;35.47;22.57;;;7.50;99.90;;;;;;8307846;28;20561;-79
2023/03/21 05:32:56;;;;;;;33.03;21.23;;;7.60;99.90;;;;;;8300853;28;20220;-78
2023/03/21 05:36:57;;;;;;;33.23;20.77;;;7.60;99.90;;;;;;8305960;28;20210;-78
2023/03/21 05:40:58;;;;;;;35.93;21.47;;;7.70;99.90;;;;;;8300346;28;20237;-78
2023/03/21 05:44:59;;;;;;;37.60;22.43;;;7.70;99.90;;;;;;8306395;28;20214;-78
2023/03/21 05:49:00;;;;;;;35.80;22.67;;;7.70;99.90;;;;;;8315071;28;20218;-78
2023/03/21 05:53:01;;;;;;;46.87;27.10;;;7.70;99.90;;;;;;8307602;28;20230;-78
2023/03/21 05:57:03;;;;;;;38.07;25.97;;;7.70;99.90;;;;;;8322498;28;20226;-78
2023/03/21 06:01:04;;;;;;;40.90;26.00;;;7.70;99.90;;;;;;8308809;28;20200;-78
2023/03/21 06:05:05;;;;;;;42.33;26.33;;;7.60;99.90;;;;;;8308332;28;20464;-78
2023/03/21 06:09:06;;;;;;;41.77;26.13;;;7.60;99.90;;;;;;8287663;28;20242;-78
2023/03/21 06:13:07;;;;;;;40.43;26.57;;;7.70;99.90;;;;;;8312530;28;20191;-77
2023/03/21 06:17:08;;;;;;;33.70;23.70;;;7.80;99.90;;;;;;8308804;28;20225;-78
2023/03/21 06:21:09;;;;;;;34.10;23.97;;;8.00;99.90;;;;;;8309650;28;20393;-78
2023/03/21 06:25:10;;;;;;;37.63;24.63;;;8.00;99.90;;;;;;8304352;28;20178;-78
2023/03/21 06:29:11;;;;;;;36.43;23.93;;;8.00;99.90;;;;;;8307897;28;20207;-77
2023/03/21 06:33:12;;;;;;;35.67;22.67;;;8.00;99.90;;;;;;8311037;28;20206;-77
2023/03/21 06:37:12;;;;;;;39.40;25.33;;;8.00;99.90;;;;;;8309514;28;20209;-78
2023/03/21 06:41:14;;;;;;;37.13;25.07;;;8.00;99.90;;;;;;8303284;28;20202;-78
2023/03/21 06:45:15;;;;;;;36.97;24.90;;;7.90;99.90;;;;;;8312103;28;20186;-78
2023/03/21 06:49:16;;;;;;;35.43;25.27;;;7.90;99.90;;;;;;8307089;28;20186;-78
2023/03/21 06:53:19;;;;;;;34.23;24.27;;;7.80;99.90;;;;;;8304862;28;20222;-78
2023/03/21 06:57:20;;;;;;;36.77;24.90;;;7.80;99.90;;;;;;8305803;28;20329;-78
2023/03/21 07:01:21;;;;;;;33.17;23.80;;;7.80;99.90;;;;;;8309574;28;20203;-78
2023/03/21 07:05:22;;;;;;;36.70;25.73;;;7.90;99.90;;;;;;8306055;28;20190;-78
2023/03/21 07:09:26;;;;;;;36.43;25.07;;;7.90;99.90;;;;;;8323802;28;20190;-78
2023/03/21 07:13:27;;;;;;;33.97;24.97;;;8.00;99.90;;;;;;8316535;28;20194;-78
2023/03/21 07:17:28;;;;;;;32.43;23.93;;;8.00;99.90;;;;;;8342144;28;20214;-79
2023/03/21 07:21:29;;;;;;;33.00;23.53;;;8.00;99.90;;;;;;8345743;28;20202;-79
2023/03/21 07:25:30;;;;;;;35.67;25.03;;;8.00;99.90;;;;;;8343012;28;20171;-79
2023/03/21 07:29:31;;;;;;;35.60;24.93;;;8.00;99.90;;;;;;8349584;28;20416;-79
2023/03/21 07:33:32;;;;;;;35.83;24.73;;;8.10;99.90;;;;;;8336701;28;20211;-78
2023/03/21 07:37:33;;;;;;;33.00;24.90;;;8.20;99.90;;;;;;8302979;28;20217;-78
2023/03/21 07:41:34;;;;;;;34.07;24.53;;;8.30;99.90;;;;;;8307511;28;20218;-78
2023/03/21 07:45:35;;;;;;;35.00;25.00;;;8.40;99.90;;;;;;8302527;28;20511;-78
2023/03/21 07:49:36;;;;;;;32.37;23.00;;;8.40;99.90;;;;;;8304555;28;20191;-78
2023/03/21 07:53:38;;;;;;;32.07;24.43;;;8.30;99.90;;;;;;8305676;28;20285;-78
2023/03/21 07:57:39;;;;;;;35.37;25.67;;;8.40;99.90;;;;;;8304526;28;20197;-78
2023/03/21 08:01:40;;;;;;;38.90;25.10;;;8.30;99.90;;;;;;8303257;28;20210;-78
2023/03/21 08:05:41;;;;;;;34.17;25.17;;;8.30;99.90;;;;;;8305452;28;20190;-78
2023/03/21 08:09:45;;;;;;;32.37;24.60;;;8.40;99.90;;;;;;8320065;28;20228;-78
2023/03/21 08:13:45;;;;;;;32.37;23.77;;;8.40;99.90;;;;;;8307314;28;20187;-79
2023/03/21 08:17:46;;;;;;;30.73;22.63;;;8.50;99.90;;;;;;8302628;28;20203;-78
2023/03/21 08:21:48;;;;;;;31.00;23.90;;;8.60;99.90;;;;;;8306072;28;20214;-78
2023/03/21 08:25:53;;;;;;;29.23;22.13;;;8.90;99.90;;;;;;8303378;28;20229;-79
2023/03/21 08:29:54;;;;;;;28.33;21.33;;;8.90;99.90;;;;;;8313177;28;20186;-78
2023/03/21 08:33:55;;;;;;;28.97;21.20;;;9.00;99.90;;;;;;8301401;28;20213;-78
2023/03/21 08:37:56;;;;;;;27.60;21.17;;;9.00;99.90;;;;;;8299213;28;20195;-78
2023/03/21 08:41:57;;;;;;;32.73;22.00;;;9.00;99.90;;;;;;8307187;28;20211;-78
2023/03/21 08:45:58;;;;;;;30.53;21.93;;;9.10;99.90;;;;;;8305043;28;20190;-78
2023/03/21 08:49:59;;;;;;;21.07;17.87;;;9.20;99.90;;;;;;8302905;28;20214;-78
2023/03/21 08:54:00;;;;;;;26.63;19.93;;;9.30;99.90;;;;;;8313798;28;20276;-78
2023/03/21 08:58:01;;;;;;;22.77;18.90;;;9.50;99.90;;;;;;8296949;28;20191;-78
2023/03/21 09:02:02;;;;;;;26.13;20.73;;;9.70;99.90;;;;;;8302721;28;20477;-78
2023/03/21 09:06:03;;;;;;;28.50;21.00;;;9.60;99.90;;;;;;8310025;28;20187;-78
2023/03/21 09:10:07;;;;;;;28.53;21.70;;;9.50;18.10;;;;;;8299840;28;20187;-78
2023/03/21 09:14:08;;;;;;;23.90;17.23;;;9.50;1.00;;;;;;8306645;28;20219;-78
2023/03/21 09:18:12;;;;;;;27.93;20.93;;;9.60;1.00;;;;;;8313984;28;20254;-78
2023/03/21 09:22:16;;;;;;;29.97;22.63;;;9.70;99.90;;;;;;8315289;28;20224;-78
2023/03/21 09:26:18;;;;;;;30.83;23.67;;;9.40;99.90;;;;;;8313325;28;20303;-77
2023/03/21 09:30:21;;;;;;;30.67;22.43;;;8.90;1.00;;;;;;8309439;28;20238;-78
2023/03/21 09:34:21;;;;;;;36.90;25.47;;;8.90;99.90;;;;;;8312642;28;20347;-78
2023/03/21 09:38:29;;;;;;;30.63;20.97;;;9.10;1.00;;;;;;8310571;28;20191;-78
2023/03/21 09:43:02;;;;;;;30.00;20.57;;;9.40;1.00;;;;;;8311562;28;20227;-78
2023/03/21 09:47:20;;;;;;;23.53;19.07;;;9.90;99.90;;;;;;8307391;28;20188;-78
2023/03/21 09:51:22;;;;;;;23.87;19.67;;;10.40;99.90;;;;;;8307579;28;20204;-78
2023/03/21 09:55:33;;;;;;;31.33;25.20;;;10.70;93.40;;;;;;8330748;28;20212;-78
2023/03/21 09:59:40;;;;;;;30.00;23.37;;;10.40;1.00;;;;;;8302952;28;20286;-78
2023/03/21 10:03:42;;;;;;;29.57;23.07;;;10.00;99.90;;;;;;8314607;28;20177;-78
2023/03/21 10:08:03;;;;;;;22.03;18.83;;;10.20;99.90;;;;;;8308112;28;20634;-78
2023/03/21 10:12:18;;;;;;;30.90;23.67;;;10.60;99.90;;;;;;8311361;28;20209;-78
2023/03/21 10:16:28;;;;;;;26.77;21.30;;;10.70;1.00;;;;;;8299655;28;20190;-78
2023/03/21 10:20:32;;;;;;;33.87;22.63;;;10.60;19.50;;;;;;8321142;28;20221;-78
2023/03/21 10:24:34;;;;;;;28.47;22.40;;;11.00;1.00;;;;;;8318019;28;20180;-78
2023/03/21 10:28:39;;;;;;;35.90;23.90;;;11.20;1.00;;;;;;8322695;28;20187;-78
2023/03/21 10:32:40;;;;;;;24.20;18.93;;;11.40;1.00;;;;;;8341722;28;20180;-78
2023/03/21 10:36:41;;;;;;;25.23;20.23;;;11.70;1.00;;;;;;8350846;28;20202;-78
2023/03/21 10:40:42;;;;;;;26.70;21.17;;;12.10;1.00;;;;;;8351094;28;20207;-78
2023/03/21 10:44:48;;;;;;;23.03;19.73;;;12.50;99.90;;;;;;8346640;28;20266;-79
2023/03/21 10:48:52;;;;;;;23.87;19.10;;;12.90;99.90;;;;;;8347710;28;20182;-79
2023/03/21 10:52:59;;;;;;;22.77;19.13;;;13.00;99.90;;;;;;8314848;28;20191;-78
2023/03/21 10:57:07;;;;;;;22.20;18.53;;;13.20;99.90;;;;;;8305729;28;20194;-78
2023/03/21 11:01:14;;;;;;;27.77;20.57;;;13.30;99.90;;;;;;8303008;28;20203;-78
2023/03/21 11:05:25;;;;;;;24.67;20.30;;;13.20;99.90;;;;;;8307847;28;20183;-78
2023/03/21 11:09:56;;;;;;;27.30;21.03;;;13.00;99.90;;;;;;8301472;28;20172;-78
2023/03/21 11:14:05;;;;;;;24.00;20.20;;;12.80;99.90;;;;;;8305874;28;20192;-78
2023/03/21 11:18:17;;;;;;;27.47;22.40;;;12.70;99.90;;;;;;8302661;28;20230;-78
2023/03/21 11:22:21;;;;;;;27.00;22.37;;;12.50;99.90;;;;;;8302415;28;20207;-78
2023/03/21 11:26:31;;;;;;;32.23;23.27;;;12.30;99.90;;;;;;8302260;28;20184;-78
2023/03/21 11:30:32;;;;;;;32.83;24.87;;;11.80;99.90;;;;;;8307932;28;20277;-78
2023/03/21 11:35:01;;;;;;;27.77;20.57;;;11.20;99.90;;;;;;8308791;28;20206;-78
2023/03/21 11:39:30;;;;;;;23.63;18.90;;;11.30;1.00;;;;;;8304196;28;20201;-78
2023/03/21 11:43:38;;;;;;;32.77;22.43;;;12.30;99.90;;;;;;8309392;28;20250;-79
2023/03/21 11:47:39;;;;;;;23.07;18.77;;;13.10;99.90;;;;;;8305915;28;20186;-78
2023/03/21 11:52:00;;;;;;;20.77;17.27;;;13.80;99.90;;;;;;8300675;28;20186;-78
2023/03/21 11:56:25;;;;;;;23.53;20.03;;;14.40;99.90;;;;;;8305192;28;20198;-79
2023/03/21 12:00:43;;;;;;;19.57;16.40;;;14.80;99.90;;;;;;8306760;28;20210;-79
2023/03/21 12:04:44;;;;;;;20.53;17.33;;;15.10;99.90;;;;;;8306314;28;20190;-79
2023/03/21 12:09:22;;;;;;;22.33;17.53;;;15.00;99.90;;;;;;8301355;28;20194;-78
2023/03/21 12:13:26;;;;;;;22.23;16.50;;;14.90;99.90;;;;;;8296920;28;20183;-78
2023/03/21 12:17:42;;;;;;;17.57;13.90;;;14.40;99.90;;;;;;8302565;28;20550;-78
2023/03/21 12:21:55;;;;;;;17.17;13.93;;;14.00;99.90;;;;;;8309552;28;20214;-78
2023/03/21 12:26:25;;;;;;;20.37;16.23;;;13.50;99.90;;;;;;8296710;28;20187;-78
2023/03/21 12:30:55;;;;;;;23.13;17.57;;;13.30;99.90;;;;;;8311509;28;20194;-78
2023/03/21 12:35:11;;;;;;;17.30;13.70;;;13.30;99.90;;;;;;8304144;28;20278;-79
2023/03/21 12:39:27;;;;;;;20.10;16.27;;;13.30;99.90;;;;;;8301321;28;20186;-78
2023/03/21 12:43:50;;;;;;;18.03;14.30;;;13.30;99.90;;;;;;8307813;28;20211;-78
2023/03/21 12:47:56;;;;;;;18.13;14.30;;;13.30;99.90;;;;;;8304020;28;20254;-79
2023/03/21 12:52:11;;;;;;;20.10;15.80;;;13.20;99.90;;;;;;8304407;28;20221;-79
2023/03/21 12:56:19;;;;;;;20.13;15.87;;;13.10;99.90;;;;;;8300055;28;20183;-78
2023/03/21 13:00:38;;;;;;;20.13;16.37;;;13.00;99.90;;;;;;8308584;28;20244;-77
2023/03/21 13:04:56;;;;;;;20.10;16.60;;;13.00;99.90;;;;;;8321879;28;20183;-78
2023/03/21 13:09:43;;;;;;;20.70;15.60;;;13.00;99.90;;;;;;8303256;28;20187;-78
2023/03/21 13:14:05;;;;;;;25.40;18.80;;;13.10;99.90;;;;;;8176228;28;20247;-78
2023/03/21 13:18:24;;;;;;;24.13;19.80;;;13.00;99.90;;;;;;8247892;28;20233;-78
2023/03/21 13:22:27;;;;;;;26.40;20.63;;;12.80;99.90;;;;;;8301283;28;20207;-79
2023/03/21 13:26:56;;;;;;;24.40;19.57;;;12.80;99.90;;;;;;8311576;28;20170;-78
2023/03/21 13:31:27;;;;;;;24.60;18.17;;;13.00;99.90;;;;;;8294117;28;20199;-79
2023/03/21 13:35:39;;;;;;;25.73;19.70;;;13.40;99.90;;;;;;8282731;28;20211;-78
2023/03/21 13:39:44;;;;;;;20.80;16.33;;;13.80;99.90;;;;;;8304382;28;20190;-78
2023/03/21 13:44:03;;;;;;;21.47;17.97;;;13.90;99.90;;;;;;8309149;28;20202;-78
2023/03/21 13:48:24;;;;;;;25.37;19.43;;;14.00;99.90;;;;;;8301065;28;20192;-79
2023/03/21 13:52:27;;;;;;;19.30;16.30;;;13.80;99.90;;;;;;8322654;28;20266;-79
2023/03/21 13:56:29;;;;;;;17.90;15.13;;;13.70;99.90;;;;;;8322067;28;20190;-78
2023/03/21 14:00:30;;;;;;;18.53;14.77;;;13.60;99.90;;;;;;8332650;28;20200;-78
2023/03/21 14:04:31;;;;;;;17.53;15.13;;;13.90;99.90;;;;;;8349985;28;20184;-79
2023/03/21 14:08:35;;;;;;;17.83;15.73;;;14.10;99.90;;;;;;8350406;28;20210;-78
2023/03/21 14:12:39;;;;;;;16.20;13.03;;;14.20;99.90;;;;;;8350180;28;20190;-80
2023/03/21 14:16:41;;;;;;;17.10;13.93;;;14.30;99.90;;;;;;8349010;28;20204;-77
2023/03/21 14:20:42;;;;;;;15.87;13.90;;;14.30;99.90;;;;;;8333659;28;20215;-77
2023/03/21 14:25:00;;;;;;;17.47;14.10;;;14.50;99.90;;;;;;8308947;28;20292;-79
2023/03/21 14:29:06;;;;;;;13.17;11.67;;;14.60;99.90;;;;;;8308110;28;20186;-79
2023/03/21 14:33:30;;;;;;;13.87;11.63;;;14.60;99.90;;;;;;8307039;28;20190;-79
2023/03/21 14:37:40;;;;;;;13.53;11.47;;;14.50;99.90;;;;;;8311476;28;20325;-79
2023/03/21 14:41:51;;;;;;;13.53;11.60;;;14.40;99.90;;;;;;8303754;28;20299;-79
2023/03/21 14:45:54;;;;;;;12.60;11.27;;;14.30;99.90;;;;;;8307245;28;20194;-79
2023/03/21 14:49:56;;;;;;;15.70;12.77;;;14.10;99.90;;;;;;8311771;28;20187;-79
2023/03/21 14:53:57;;;;;;;19.00;15.20;;;13.90;99.90;;;;;;8303963;28;20230;-79
2023/03/21 14:57:58;;;;;;;15.37;12.90;;;13.90;99.90;;;;;;8309674;28;20195;-79
2023/03/21 15:02:03;;;;;;;20.57;15.73;;;13.90;99.90;;;;;;8305234;28;20710;-79
2023/03/21 15:06:10;;;;;;;19.53;16.60;;;13.90;99.90;;;;;;8309102;28;20186;-79
2023/03/21 15:10:16;;;;;;;19.77;15.53;;;13.70;99.90;;;;;;8307438;28;20187;-79
2023/03/21 15:14:21;;;;;;;18.50;15.77;;;13.70;99.90;;;;;;8303181;28;20191;-79
2023/03/21 15:18:28;;;;;;;17.50;15.07;;;13.70;99.90;;;;;;8297143;28;20198;-78
2023/03/21 15:22:38;;;;;;;18.37;14.23;;;13.60;99.90;;;;;;8308033;28;20687;-78
2023/03/21 15:26:39;;;;;;;18.47;14.80;;;13.70;99.90;;;;;;8298379;28;20187;-77
2023/03/21 15:30:49;;;;;;;17.37;14.70;;;13.70;99.90;;;;;;8298547;28;20187;-78
2023/03/21 15:34:52;;;;;;;78.93;31.03;;;13.50;99.90;;;;;;8300788;28;20226;-78
2023/03/21 15:38:54;;;;;;;23.00;15.90;;;13.50;99.90;;;;;;8310425;28;20198;-77
2023/03/21 15:43:17;;;;;;;18.47;14.43;;;13.40;99.90;;;;;;8304874;28;20217;-78
2023/03/21 15:47:42;;;;;;;15.90;12.27;;;13.10;99.90;;;;;;8300030;28;20662;-78
2023/03/21 15:52:04;;;;;;;26.00;15.80;;;12.90;99.90;;;;;;8308119;28;20341;-78
2023/03/21 15:56:14;;;;;;;19.53;14.43;;;12.70;99.90;;;;;;8294549;28;20203;-78
2023/03/21 16:00:17;;;;;;;18.87;15.57;;;12.50;99.90;;;;;;8301580;28;20206;-78
2023/03/21 16:04:18;;;;;;;18.80;15.63;;;12.40;99.90;;;;;;8301683;28;20187;-78
2023/03/21 16:08:25;;;;;;;19.63;15.30;;;12.20;99.90;;;;;;8304894;28;20183;-78
2023/03/21 16:12:26;;;;;;;20.80;16.27;;;12.10;99.90;;;;;;8306068;28;20189;-78
2023/03/21 16:16:28;;;;;;;22.87;16.70;;;12.00;99.90;;;;;;8309218;28;20290;-78
2023/03/21 16:20:41;;;;;;;20.43;16.27;;;12.00;99.90;;;;;;8300619;28;20215;-78
2023/03/21 16:24:42;;;;;;;17.43;14.03;;;12.00;99.90;;;;;;8304452;28;20183;-78
2023/03/21 16:28:43;;;;;;;19.10;15.47;;;11.90;99.90;;;;;;8308381;28;20194;-78
2023/03/21 16:32:44;;;;;;;18.93;14.87;;;11.80;99.90;;;;;;8298991;28;20210;-78
2023/03/21 16:36:46;;;;;;;21.10;16.80;;;11.80;1.00;;;;;;8314449;28;20199;-78
2023/03/21 16:40:46;;;;;;;17.43;14.03;;;11.60;1.00;;;;;;8299544;28;20207;-78
2023/03/21 16:44:47;;;;;;;18.93;15.07;;;11.50;1.00;;;;;;8299038;28;20182;-78
2023/03/21 16:48:54;;;;;;;22.30;17.80;;;11.40;1.00;;;;;;8301540;28;20186;-78
2023/03/21 16:52:56;;;;;;;25.10;18.17;;;11.30;1.00;;;;;;8300565;28;20190;-77
2023/03/21 16:56:58;;;;;;;22.20;17.70;;;11.20;1.00;;;;;;8306764;28;20183;-78
2023/03/21 17:00:59;;;;;;;21.37;17.10;;;11.10;1.00;;;;;;8298684;28;20242;-78
2023/03/21 17:05:00;;;;;;;20.60;15.70;;;11.00;38.50;;;;;;8307460;28;20202;-78
2023/03/21 17:09:03;;;;;;;22.33;18.40;;;10.90;90.60;;;;;;8298901;28;20504;-77
2023/03/21 17:13:03;;;;;;;22.40;16.30;;;10.70;99.90;;;;;;8303183;28;20370;-78
2023/03/21 17:17:04;;;;;;;22.00;17.17;;;10.60;99.90;;;;;;8302214;28;20215;-78
2023/03/21 17:21:14;;;;;;;19.67;15.17;;;10.50;99.90;;;;;;8308221;28;20195;-78
2023/03/21 17:25:16;;;;;;;22.27;16.40;;;10.40;99.90;;;;;;8310138;28;20190;-78
2023/03/21 17:29:17;;;;;;;24.10;19.07;;;10.30;99.90;;;;;;8300789;28;20262;-78
2023/03/21 17:33:18;;;;;;;25.53;18.67;;;10.30;99.90;;;;;;8315923;28;20209;-83
2023/03/21 17:37:20;;;;;;;24.20;17.93;;;10.20;99.90;;;;;;8314263;28;20203;-82
2023/03/21 17:41:21;;;;;;;24.83;18.70;;;10.20;1.00;;;;;;8318428;28;20242;-81
2023/03/21 17:45:22;;;;;;;28.40;20.30;;;10.10;1.00;;;;;;8325005;28;20196;-81
2023/03/21 17:49:23;;;;;;;29.00;20.43;;;10.10;1.00;;;;;;8328067;28;20202;-85
2023/03/21 17:53:25;;;;;;;34.13;22.57;;;10.00;1.00;;;;;;8340303;28;20195;-83
2023/03/21 17:57:26;;;;;;;34.00;24.10;;;9.80;99.90;;;;;;8334637;28;20184;-83
2023/03/21 18:01:30;;;;;;;34.17;24.17;;;9.70;99.90;;;;;;8319125;28;20289;-81
2023/03/21 18:05:30;;;;;;;33.10;23.23;;;9.50;99.90;;;;;;8303194;28;20315;-82
2023/03/21 18:09:32;;;;;;;33.03;23.70;;;9.50;1.00;;;;;;8305759;28;20187;-82
2023/03/21 18:13:32;;;;;;;33.13;23.87;;;9.40;1.00;;;;;;8300827;28;20195;-83
2023/03/21 18:17:34;;;;;;;33.33;24.10;;;9.40;50.90;;;;;;8310604;28;20208;-82
2023/03/21 18:21:36;;;;;;;37.90;26.00;;;9.30;99.90;;;;;;8308674;28;20284;-82
2023/03/21 18:25:37;;;;;;;36.80;24.93;;;9.30;99.90;;;;;;8309161;28;20258;-81
2023/03/21 18:29:38;;;;;;;35.50;24.37;;;9.30;99.90;;;;;;8312873;28;20182;-82
2023/03/21 18:33:40;;;;;;;34.03;23.50;;;9.30;99.90;;;;;;8304674;28;20197;-82
2023/03/21 18:37:42;;;;;;;36.90;25.37;;;9.30;99.90;;;;;;8312218;28;20693;-82
2023/03/21 18:41:43;;;;;;;36.73;24.93;;;9.30;99.90;;;;;;8304753;28;20300;-82
2023/03/21 18:45:44;;;;;;;38.73;27.53;;;9.30;99.90;;;;;;8308721;28;20179;-82
2023/03/21 18:49:45;;;;;;;40.40;26.83;;;9.20;99.90;;;;;;8307016;28;20188;-82
2023/03/21 18:53:46;;;;;;;42.97;29.07;;;9.20;99.90;;;;;;8311153;28;20282;-82
2023/03/21 18:57:47;;;;;;;44.70;29.57;;;9.20;99.90;;;;;;8308085;28;20188;-83
2023/03/21 19:01:49;;;;;;;46.20;32.67;;;9.20;99.90;;;;;;8307703;28;20208;-82
2023/03/21 19:05:50;;;;;;;48.23;31.73;;;9.30;99.90;;;;;;8304817;28;20233;-81
2023/03/21 19:09:54;;;;;;;51.30;33.10;;;9.30;99.90;;;;;;8303295;28;20192;-81
2023/03/21 19:13:55;;;;;;;50.00;32.17;;;9.30;99.90;;;;;;8309978;28;20179;-82
2023/03/21 19:17:56;;;;;;;51.70;34.23;;;9.30;99.90;;;;;;8318508;28;20209;-83
2023/03/21 19:21:57;;;;;;;49.17;33.43;;;9.30;99.90;;;;;;8309724;28;20294;-82
2023/03/21 19:25:58;;;;;;;52.90;33.83;;;9.30;99.90;;;;;;8313247;28;20213;-82
2023/03/21 19:30:00;;;;;;;47.83;34.00;;;9.30;99.90;;;;;;8309794;28;20267;-83
2023/03/21 19:34:02;;;;;;;49.30;32.57;;;9.30;99.90;;;;;;8303668;28;20188;-82
2023/03/21 19:38:03;;;;;;;53.17;35.23;;;9.30;99.90;;;;;;8311049;28;20183;-82
2023/03/21 19:42:04;;;;;;;53.67;37.60;;;9.20;99.90;;;;;;8301108;28;20198;-82
2023/03/21 19:46:05;;;;;;;55.60;37.80;;;9.20;99.90;;;;;;8305654;28;20186;-83
2023/03/21 19:50:07;;;;;;;49.33;35.23;;;9.10;99.90;;;;;;8308048;28;20383;-82
2023/03/21 19:54:08;;;;;;;56.93;36.93;;;9.10;99.90;;;;;;8309556;28;20183;-82
2023/03/21 19:58:09;;;;;;;57.63;38.37;;;9.10;1.00;;;;;;8308791;28;20194;-83
2023/03/21 20:02:11;;;;;;;54.43;38.13;;;9.10;1.00;;;;;;8306091;28;20218;-83
2023/03/21 20:06:12;;;;;;;62.33;39.50;;;9.10;1.00;;;;;;8308626;28;20190;-83
2023/03/21 20:10:13;;;;;;;59.47;39.33;;;9.10;1.00;;;;;;8287362;28;20202;-82
2023/03/21 20:14:15;;;;;;;60.33;38.43;;;9.10;1.00;;;;;;8300521;28;20182;-83
2023/03/21 20:18:16;;;;;;;58.47;39.17;;;9.10;1.00;;;;;;8304961;28;20213;-82
2023/03/21 20:22:17;;;;;;;56.63;38.03;;;9.00;29.30;;;;;;8297748;28;20203;-82
2023/03/21 20:26:19;;;;;;;59.37;38.23;;;9.00;78.90;;;;;;8303984;28;20170;-83
2023/03/21 20:30:20;;;;;;;59.47;39.43;;;9.00;99.90;;;;;;8301065;28;20181;-82
2023/03/21 20:34:21;;;;;;;58.67;37.53;;;9.00;99.90;;;;;;8300441;28;20217;-83
2023/03/21 20:38:22;;;;;;;56.97;36.53;;;9.00;99.90;;;;;;8309284;28;20193;-83
2023/03/21 20:42:23;;;;;;;59.87;37.60;;;9.00;99.90;;;;;;8308724;28;20206;-83
2023/03/21 20:46:25;;;;;;;55.70;37.43;;;9.00;99.90;;;;;;8303308;28;20190;-83
2023/03/21 20:50:30;;;;;;;56.90;36.83;;;9.00;99.90;;;;;;8298280;28;20194;-84
2023/03/21 20:54:33;;;;;;;52.87;35.63;;;9.00;99.90;;;;;;8303095;28;20186;-83